NDU7828 KBBW-KOMA
Flight info
| Callsign | NDU7828 |
|---|---|
| Flight time | 1h 8m |
| Altitude | 5000 |
| Route | CUZ GRI HOWRY3 |
| Aircraft | BE58/L-SDFGRY/C |
Departure
| Time | 2026-05-09 03:21 |
|---|---|
| Airport | Broken Bow Municipal Airport (KBBW) |
Arrival
| Time | 2026-05-09 04:29 |
|---|---|
| Airport | Eppley Airfield (KOMA) |
| Time | Latitude | Longitude | Altitude | Speed | Heading |
|---|---|---|---|---|---|
| 2026-05-09 03:15 | 41.43231 | -99.63695 | 2525 ft | 2 kts | 179° |
| 2026-05-09 03:15 | 41.43216 | -99.63731 | 2524 ft | 4 kts | 257° |
| 2026-05-09 03:16 | 41.43209 | -99.63751 | 2524 ft | 0 kts | 231° |
| 2026-05-09 03:17 | 41.43206 | -99.63756 | 2523 ft | 1 kts | 231° |
| 2026-05-09 03:17 | 41.43198 | -99.63768 | 2523 ft | 14 kts | 227° |
| 2026-05-09 03:17 | 41.43178 | -99.63795 | 2524 ft | 0 kts | 229° |
| 2026-05-09 03:19 | 41.43178 | -99.63796 | 2524 ft | 3 kts | 229° |
| 2026-05-09 03:19 | 41.43209 | -99.63871 | 2523 ft | 28 kts | 333° |
| 2026-05-09 03:20 | 41.43578 | -99.64167 | 2528 ft | 91 kts | 328° |
| 2026-05-09 03:20 | 41.44223 | -99.64692 | 2601 ft | 120 kts | 327° |
| 2026-05-09 03:20 | 41.45010 | -99.65205 | 2747 ft | 134 kts | 0° |
| 2026-05-09 03:20 | 41.45830 | -99.64724 | 3026 ft | 132 kts | 47° |
| 2026-05-09 03:21 | 41.46269 | -99.63685 | 3292 ft | 129 kts | 86° |
| 2026-05-09 03:21 | 41.46160 | -99.62537 | 3574 ft | 125 kts | 120° |
| 2026-05-09 03:21 | 41.45766 | -99.61500 | 3815 ft | 126 kts | 120° |
| 2026-05-09 03:21 | 41.45389 | -99.60443 | 4083 ft | 127 kts | 121° |
| 2026-05-09 03:22 | 41.45006 | -99.59382 | 4329 ft | 127 kts | 121° |
| 2026-05-09 03:22 | 41.44624 | -99.58317 | 4575 ft | 128 kts | 120° |
| 2026-05-09 03:22 | 41.44241 | -99.57246 | 4814 ft | 128 kts | 120° |
| 2026-05-09 03:22 | 41.43859 | -99.56182 | 4998 ft | 133 kts | 120° |
| 2026-05-09 03:23 | 41.43437 | -99.55014 | 5013 ft | 146 kts | 120° |
| 2026-05-09 03:23 | 41.42983 | -99.53749 | 5012 ft | 155 kts | 120° |
| 2026-05-09 03:23 | 41.42511 | -99.52428 | 5009 ft | 160 kts | 120° |
| 2026-05-09 03:23 | 41.42028 | -99.51077 | 5011 ft | 163 kts | 119° |
| 2026-05-09 03:24 | 41.41538 | -99.49704 | 5011 ft | 164 kts | 119° |
| 2026-05-09 03:24 | 41.41046 | -99.48327 | 5006 ft | 165 kts | 119° |
| 2026-05-09 03:24 | 41.40552 | -99.46944 | 5008 ft | 165 kts | 120° |
| 2026-05-09 03:24 | 41.40055 | -99.45559 | 5009 ft | 166 kts | 120° |
| 2026-05-09 03:25 | 41.39567 | -99.44194 | 5010 ft | 166 kts | 119° |
| 2026-05-09 03:25 | 41.39069 | -99.42806 | 5008 ft | 166 kts | 120° |
| 2026-05-09 03:25 | 41.38571 | -99.41416 | 5007 ft | 166 kts | 120° |
| 2026-05-09 03:25 | 41.38073 | -99.40029 | 5006 ft | 166 kts | 120° |
| 2026-05-09 03:26 | 41.37576 | -99.38642 | 5004 ft | 166 kts | 120° |
| 2026-05-09 03:26 | 41.37079 | -99.37257 | 5002 ft | 166 kts | 120° |
| 2026-05-09 03:26 | 41.36582 | -99.35873 | 5001 ft | 166 kts | 120° |
| 2026-05-09 03:26 | 41.36084 | -99.34489 | 4997 ft | 165 kts | 120° |
| 2026-05-09 03:27 | 41.35595 | -99.33126 | 4995 ft | 165 kts | 120° |
| 2026-05-09 03:27 | 41.35094 | -99.31731 | 4995 ft | 165 kts | 120° |
| 2026-05-09 03:27 | 41.34603 | -99.30371 | 4992 ft | 166 kts | 120° |
| 2026-05-09 03:27 | 41.34105 | -99.28986 | 4991 ft | 166 kts | 119° |
| 2026-05-09 03:28 | 41.33605 | -99.27600 | 4993 ft | 166 kts | 120° |
| 2026-05-09 03:28 | 41.33105 | -99.26213 | 4991 ft | 167 kts | 120° |
| 2026-05-09 03:28 | 41.32603 | -99.24821 | 4990 ft | 167 kts | 120° |
| 2026-05-09 03:28 | 41.32103 | -99.23433 | 4991 ft | 167 kts | 120° |
| 2026-05-09 03:29 | 41.31600 | -99.22042 | 4990 ft | 167 kts | 120° |
| 2026-05-09 03:29 | 41.31100 | -99.20654 | 4992 ft | 167 kts | 120° |
| 2026-05-09 03:29 | 41.30597 | -99.19264 | 4990 ft | 167 kts | 120° |
| 2026-05-09 03:29 | 41.30094 | -99.17873 | 4991 ft | 167 kts | 120° |
| 2026-05-09 03:30 | 41.29591 | -99.16480 | 4992 ft | 167 kts | 120° |
| 2026-05-09 03:30 | 41.29090 | -99.15094 | 4990 ft | 166 kts | 120° |
| 2026-05-09 03:30 | 41.28588 | -99.13709 | 4990 ft | 166 kts | 120° |
| 2026-05-09 03:30 | 41.28094 | -99.12343 | 4994 ft | 166 kts | 120° |
| 2026-05-09 03:31 | 41.27593 | -99.10962 | 4991 ft | 166 kts | 120° |
| 2026-05-09 03:31 | 41.27092 | -99.09580 | 4992 ft | 166 kts | 120° |
| 2026-05-09 03:31 | 41.26591 | -99.08197 | 4990 ft | 166 kts | 120° |
| 2026-05-09 03:31 | 41.26088 | -99.06813 | 4992 ft | 166 kts | 120° |
| 2026-05-09 03:32 | 41.25586 | -99.05430 | 4990 ft | 166 kts | 120° |
| 2026-05-09 03:32 | 41.25084 | -99.04047 | 4991 ft | 166 kts | 120° |
| 2026-05-09 03:32 | 41.24584 | -99.02671 | 4992 ft | 166 kts | 120° |
| 2026-05-09 03:32 | 41.24081 | -99.01288 | 4991 ft | 166 kts | 120° |
| 2026-05-09 03:33 | 41.23638 | -98.99880 | 4983 ft | 168 kts | 103° |
| 2026-05-09 03:33 | 41.23637 | -98.98341 | 4989 ft | 170 kts | 90° |
| 2026-05-09 03:33 | 41.23685 | -98.96782 | 4997 ft | 169 kts | 93° |
| 2026-05-09 03:33 | 41.23698 | -98.95223 | 4997 ft | 169 kts | 94° |
| 2026-05-09 03:34 | 41.23704 | -98.93660 | 4997 ft | 169 kts | 94° |
| 2026-05-09 03:34 | 41.23710 | -98.92096 | 4995 ft | 169 kts | 94° |
| 2026-05-09 03:34 | 41.23715 | -98.90532 | 4995 ft | 169 kts | 94° |
| 2026-05-09 03:34 | 41.23721 | -98.88970 | 4993 ft | 169 kts | 94° |
| 2026-05-09 03:35 | 41.23725 | -98.87404 | 4991 ft | 169 kts | 94° |
| 2026-05-09 03:35 | 41.23731 | -98.85841 | 4990 ft | 169 kts | 94° |
| 2026-05-09 03:35 | 41.23737 | -98.84301 | 4992 ft | 169 kts | 94° |
| 2026-05-09 03:35 | 41.23742 | -98.82736 | 4990 ft | 169 kts | 94° |
| 2026-05-09 03:36 | 41.23746 | -98.81171 | 4991 ft | 169 kts | 94° |
| 2026-05-09 03:36 | 41.23750 | -98.79608 | 4990 ft | 169 kts | 94° |
| 2026-05-09 03:36 | 41.23754 | -98.78043 | 4992 ft | 169 kts | 94° |
| 2026-05-09 03:36 | 41.23758 | -98.76478 | 4990 ft | 170 kts | 94° |
| 2026-05-09 03:37 | 41.23762 | -98.74914 | 4991 ft | 170 kts | 94° |
| 2026-05-09 03:37 | 41.23765 | -98.73347 | 4990 ft | 169 kts | 94° |
| 2026-05-09 03:37 | 41.23769 | -98.71783 | 5000 ft | 169 kts | 94° |
| 2026-05-09 03:37 | 41.23774 | -98.70255 | 5123 ft | 163 kts | 94° |
| 2026-05-09 03:38 | 41.23776 | -98.68774 | 5167 ft | 164 kts | 94° |
| 2026-05-09 03:38 | 41.23778 | -98.67253 | 5167 ft | 166 kts | 94° |
| 2026-05-09 03:38 | 41.23779 | -98.65714 | 5168 ft | 167 kts | 94° |
| 2026-05-09 03:38 | 41.23782 | -98.64164 | 5169 ft | 168 kts | 94° |
| 2026-05-09 03:39 | 41.23784 | -98.62607 | 5169 ft | 169 kts | 94° |
| 2026-05-09 03:39 | 41.23786 | -98.61049 | 5169 ft | 169 kts | 94° |
| 2026-05-09 03:39 | 41.23788 | -98.59487 | 5169 ft | 169 kts | 94° |
| 2026-05-09 03:39 | 41.23789 | -98.57930 | 5168 ft | 169 kts | 94° |
| 2026-05-09 03:40 | 41.23790 | -98.56368 | 5166 ft | 169 kts | 94° |
| 2026-05-09 03:40 | 41.23791 | -98.54828 | 5168 ft | 169 kts | 94° |
| 2026-05-09 03:40 | 41.23791 | -98.53269 | 5166 ft | 169 kts | 94° |
| 2026-05-09 03:40 | 41.23792 | -98.51707 | 5167 ft | 169 kts | 94° |
| 2026-05-09 03:41 | 41.23793 | -98.50145 | 5167 ft | 169 kts | 94° |
| 2026-05-09 03:41 | 41.23793 | -98.48583 | 5166 ft | 169 kts | 94° |
| 2026-05-09 03:41 | 41.23793 | -98.47046 | 5167 ft | 169 kts | 94° |
| 2026-05-09 03:41 | 41.23792 | -98.45467 | 5166 ft | 169 kts | 94° |
| 2026-05-09 03:42 | 41.23792 | -98.43904 | 5167 ft | 169 kts | 94° |
| 2026-05-09 03:42 | 41.23791 | -98.42364 | 5167 ft | 169 kts | 94° |
| 2026-05-09 03:42 | 41.23790 | -98.40802 | 5167 ft | 169 kts | 94° |
| 2026-05-09 03:42 | 41.23789 | -98.39242 | 5167 ft | 169 kts | 94° |
| 2026-05-09 03:43 | 41.23788 | -98.37682 | 5168 ft | 169 kts | 94° |
| 2026-05-09 03:43 | 41.23787 | -98.36124 | 5166 ft | 169 kts | 94° |
| 2026-05-09 03:43 | 41.23785 | -98.34564 | 5167 ft | 169 kts | 94° |
| 2026-05-09 03:43 | 41.23783 | -98.33007 | 5166 ft | 169 kts | 94° |
| 2026-05-09 03:44 | 41.23781 | -98.31445 | 5168 ft | 169 kts | 94° |
| 2026-05-09 03:44 | 41.23778 | -98.29883 | 5166 ft | 169 kts | 94° |
| 2026-05-09 03:44 | 41.23776 | -98.28344 | 5167 ft | 169 kts | 94° |
| 2026-05-09 03:44 | 41.23773 | -98.26780 | 5166 ft | 169 kts | 94° |
| 2026-05-09 03:45 | 41.23770 | -98.25221 | 5166 ft | 169 kts | 94° |
| 2026-05-09 03:45 | 41.23767 | -98.23657 | 5167 ft | 169 kts | 94° |
| 2026-05-09 03:45 | 41.23763 | -98.22093 | 5166 ft | 169 kts | 94° |
| 2026-05-09 03:45 | 41.23759 | -98.20530 | 5168 ft | 169 kts | 94° |
| 2026-05-09 03:46 | 41.23756 | -98.18967 | 5166 ft | 169 kts | 94° |
| 2026-05-09 03:46 | 41.23751 | -98.17402 | 5166 ft | 169 kts | 94° |
| 2026-05-09 03:46 | 41.23747 | -98.15845 | 5167 ft | 169 kts | 94° |
| 2026-05-09 03:46 | 41.23743 | -98.14302 | 5166 ft | 169 kts | 94° |
| 2026-05-09 03:47 | 41.23738 | -98.12743 | 5166 ft | 169 kts | 94° |
| 2026-05-09 03:47 | 41.23734 | -98.11183 | 5167 ft | 169 kts | 94° |
| 2026-05-09 03:47 | 41.23728 | -98.09624 | 5166 ft | 169 kts | 94° |
| 2026-05-09 03:47 | 41.23724 | -98.08059 | 5167 ft | 169 kts | 95° |
| 2026-05-09 03:48 | 41.23717 | -98.06501 | 5168 ft | 169 kts | 94° |
| 2026-05-09 03:48 | 41.23711 | -98.04941 | 5166 ft | 169 kts | 94° |
| 2026-05-09 03:48 | 41.23705 | -98.03378 | 5167 ft | 169 kts | 94° |
| 2026-05-09 03:48 | 41.23700 | -98.01817 | 5166 ft | 169 kts | 94° |
| 2026-05-09 03:49 | 41.23693 | -98.00254 | 5166 ft | 169 kts | 94° |
| 2026-05-09 03:49 | 41.23686 | -97.98693 | 5167 ft | 169 kts | 95° |
| 2026-05-09 03:49 | 41.23680 | -97.97150 | 5168 ft | 169 kts | 94° |
| 2026-05-09 03:49 | 41.23672 | -97.95590 | 5166 ft | 169 kts | 95° |
| 2026-05-09 03:50 | 41.23666 | -97.94025 | 5167 ft | 169 kts | 95° |
| 2026-05-09 03:50 | 41.23658 | -97.92461 | 5165 ft | 169 kts | 95° |
| 2026-05-09 03:50 | 41.23650 | -97.90897 | 5166 ft | 169 kts | 95° |
| 2026-05-09 03:50 | 41.23643 | -97.89337 | 5167 ft | 169 kts | 95° |
| 2026-05-09 03:51 | 41.23635 | -97.87773 | 5166 ft | 169 kts | 95° |
| 2026-05-09 03:51 | 41.23626 | -97.86214 | 5166 ft | 169 kts | 95° |
| 2026-05-09 03:51 | 41.23618 | -97.84652 | 5168 ft | 169 kts | 95° |
| 2026-05-09 03:51 | 41.23609 | -97.83091 | 5166 ft | 169 kts | 95° |
| 2026-05-09 03:52 | 41.23600 | -97.81527 | 5167 ft | 169 kts | 95° |
| 2026-05-09 03:52 | 41.23591 | -97.79966 | 5166 ft | 169 kts | 95° |
| 2026-05-09 03:52 | 41.23582 | -97.78426 | 5167 ft | 169 kts | 95° |
| 2026-05-09 03:52 | 41.23572 | -97.76864 | 5166 ft | 169 kts | 95° |
| 2026-05-09 03:53 | 41.23563 | -97.75301 | 5167 ft | 169 kts | 95° |
| 2026-05-09 03:53 | 41.23552 | -97.73738 | 5167 ft | 169 kts | 95° |
| 2026-05-09 03:53 | 41.23542 | -97.72177 | 5166 ft | 169 kts | 95° |
| 2026-05-09 03:53 | 41.23532 | -97.70612 | 5168 ft | 169 kts | 95° |
| 2026-05-09 03:54 | 41.23521 | -97.69053 | 5166 ft | 169 kts | 95° |
| 2026-05-09 03:54 | 41.23511 | -97.67489 | 5166 ft | 169 kts | 95° |
| 2026-05-09 03:54 | 41.23500 | -97.65930 | 5168 ft | 169 kts | 95° |
| 2026-05-09 03:54 | 41.23489 | -97.64389 | 5168 ft | 169 kts | 95° |
| 2026-05-09 03:55 | 41.23477 | -97.62831 | 5167 ft | 169 kts | 95° |
| 2026-05-09 03:55 | 41.23466 | -97.61273 | 5168 ft | 169 kts | 95° |
| 2026-05-09 03:55 | 41.23454 | -97.59716 | 5165 ft | 169 kts | 95° |
| 2026-05-09 03:55 | 41.23441 | -97.58155 | 5167 ft | 169 kts | 95° |
| 2026-05-09 03:56 | 41.23429 | -97.56598 | 5166 ft | 169 kts | 95° |
| 2026-05-09 03:56 | 41.23417 | -97.55036 | 5167 ft | 169 kts | 95° |
| 2026-05-09 03:56 | 41.23404 | -97.53480 | 5166 ft | 169 kts | 95° |
| 2026-05-09 03:56 | 41.23392 | -97.51917 | 5167 ft | 169 kts | 95° |
| 2026-05-09 03:57 | 41.23378 | -97.50375 | 5166 ft | 169 kts | 95° |
| 2026-05-09 03:57 | 41.23365 | -97.48812 | 5167 ft | 169 kts | 95° |
| 2026-05-09 03:57 | 41.23351 | -97.47250 | 5166 ft | 169 kts | 95° |
| 2026-05-09 03:57 | 41.23337 | -97.45687 | 5166 ft | 169 kts | 95° |
| 2026-05-09 03:58 | 41.23324 | -97.44123 | 5167 ft | 169 kts | 95° |
| 2026-05-09 03:58 | 41.23310 | -97.42563 | 5165 ft | 169 kts | 95° |
| 2026-05-09 03:58 | 41.23297 | -97.41025 | 5272 ft | 163 kts | 95° |
| 2026-05-09 03:58 | 41.23283 | -97.39513 | 5296 ft | 165 kts | 95° |
| 2026-05-09 03:59 | 41.23267 | -97.37978 | 5297 ft | 167 kts | 95° |
| 2026-05-09 03:59 | 41.23251 | -97.36432 | 5297 ft | 168 kts | 95° |
| 2026-05-09 03:59 | 41.23237 | -97.34899 | 5297 ft | 168 kts | 95° |
| 2026-05-09 03:59 | 41.23222 | -97.33351 | 5297 ft | 169 kts | 95° |
| 2026-05-09 04:00 | 41.23206 | -97.31787 | 5297 ft | 169 kts | 95° |
| 2026-05-09 04:00 | 41.23190 | -97.30229 | 5295 ft | 169 kts | 95° |
| 2026-05-09 04:00 | 41.23174 | -97.28669 | 5297 ft | 169 kts | 95° |
| 2026-05-09 04:00 | 41.23158 | -97.27111 | 5296 ft | 169 kts | 95° |
| 2026-05-09 04:01 | 41.23141 | -97.25551 | 5297 ft | 169 kts | 95° |
| 2026-05-09 04:01 | 41.23125 | -97.23991 | 5296 ft | 169 kts | 95° |
| 2026-05-09 04:01 | 41.23108 | -97.22431 | 5297 ft | 169 kts | 95° |
| 2026-05-09 04:01 | 41.23091 | -97.20872 | 5296 ft | 169 kts | 95° |
| 2026-05-09 04:02 | 41.23074 | -97.19334 | 5297 ft | 169 kts | 95° |
| 2026-05-09 04:02 | 41.23056 | -97.17777 | 5299 ft | 169 kts | 95° |
| 2026-05-09 04:02 | 41.23038 | -97.16215 | 5297 ft | 169 kts | 95° |
| 2026-05-09 04:02 | 41.23021 | -97.14654 | 5296 ft | 169 kts | 95° |
| 2026-05-09 04:03 | 41.23003 | -97.13093 | 5296 ft | 169 kts | 95° |
| 2026-05-09 04:03 | 41.22984 | -97.11531 | 5297 ft | 169 kts | 95° |
| 2026-05-09 04:03 | 41.22966 | -97.09971 | 5298 ft | 169 kts | 95° |
| 2026-05-09 04:03 | 41.22947 | -97.08432 | 5296 ft | 169 kts | 95° |
| 2026-05-09 04:04 | 41.22928 | -97.06849 | 5298 ft | 169 kts | 95° |
| 2026-05-09 04:04 | 41.22909 | -97.05309 | 5296 ft | 169 kts | 95° |
| 2026-05-09 04:04 | 41.22889 | -97.03748 | 5298 ft | 169 kts | 95° |
| 2026-05-09 04:04 | 41.22870 | -97.02189 | 5296 ft | 169 kts | 95° |
| 2026-05-09 04:05 | 41.22850 | -97.00631 | 5297 ft | 169 kts | 95° |
| 2026-05-09 04:05 | 41.22830 | -96.99075 | 5297 ft | 169 kts | 95° |
| 2026-05-09 04:05 | 41.22810 | -96.97517 | 5296 ft | 169 kts | 95° |
| 2026-05-09 04:05 | 41.22790 | -96.95955 | 5296 ft | 169 kts | 95° |
| 2026-05-09 04:06 | 41.22769 | -96.94396 | 5296 ft | 169 kts | 95° |
| 2026-05-09 04:06 | 41.22747 | -96.92839 | 5296 ft | 169 kts | 95° |
| 2026-05-09 04:06 | 41.22727 | -96.91295 | 5298 ft | 169 kts | 95° |
| 2026-05-09 04:06 | 41.22705 | -96.89730 | 5296 ft | 169 kts | 95° |
| 2026-05-09 04:07 | 41.22684 | -96.88166 | 5296 ft | 169 kts | 95° |
| 2026-05-09 04:07 | 41.22662 | -96.86606 | 5298 ft | 169 kts | 95° |
| 2026-05-09 04:07 | 41.22640 | -96.85042 | 5296 ft | 169 kts | 95° |
| 2026-05-09 04:07 | 41.22618 | -96.83483 | 5296 ft | 169 kts | 95° |
| 2026-05-09 04:08 | 41.22603 | -96.82449 | 5296 ft | 169 kts | 95° |
| 2026-05-09 04:08 | 41.22581 | -96.80882 | 5296 ft | 169 kts | 95° |
| 2026-05-09 04:08 | 41.22559 | -96.79320 | 5297 ft | 169 kts | 95° |
| 2026-05-09 04:08 | 41.22528 | -96.77256 | 5296 ft | 169 kts | 95° |
| 2026-05-09 04:09 | 41.22504 | -96.75695 | 5297 ft | 169 kts | 95° |
| 2026-05-09 04:09 | 41.22481 | -96.74138 | 5296 ft | 169 kts | 95° |
| 2026-05-09 04:09 | 41.22466 | -96.73105 | 5297 ft | 169 kts | 95° |
| 2026-05-09 04:09 | 41.22442 | -96.71548 | 5298 ft | 169 kts | 95° |
| 2026-05-09 04:10 | 41.22418 | -96.69987 | 5297 ft | 169 kts | 95° |
| 2026-05-09 04:10 | 41.22394 | -96.68424 | 5296 ft | 169 kts | 95° |
| 2026-05-09 04:10 | 41.22369 | -96.66861 | 5296 ft | 169 kts | 95° |
| 2026-05-09 04:10 | 41.22345 | -96.65301 | 5296 ft | 169 kts | 95° |
| 2026-05-09 04:11 | 41.22320 | -96.63737 | 5297 ft | 169 kts | 95° |
| 2026-05-09 04:11 | 41.22295 | -96.62175 | 5299 ft | 169 kts | 95° |
| 2026-05-09 04:11 | 41.22270 | -96.60614 | 5324 ft | 168 kts | 95° |
| 2026-05-09 04:11 | 41.22245 | -96.59062 | 5325 ft | 168 kts | 95° |
| 2026-05-09 04:12 | 41.22219 | -96.57529 | 5324 ft | 169 kts | 95° |
| 2026-05-09 04:12 | 41.22193 | -96.55974 | 5324 ft | 169 kts | 95° |
| 2026-05-09 04:12 | 41.22167 | -96.54412 | 5326 ft | 169 kts | 95° |
| 2026-05-09 04:12 | 41.22141 | -96.52854 | 5324 ft | 169 kts | 95° |
| 2026-05-09 04:13 | 41.22115 | -96.51297 | 5324 ft | 169 kts | 95° |
| 2026-05-09 04:13 | 41.22088 | -96.49737 | 5324 ft | 169 kts | 95° |
| 2026-05-09 04:13 | 41.22061 | -96.48177 | 5325 ft | 169 kts | 95° |
| 2026-05-09 04:13 | 41.22034 | -96.46616 | 5320 ft | 169 kts | 95° |
| 2026-05-09 04:14 | 41.22006 | -96.45058 | 5324 ft | 169 kts | 95° |
| 2026-05-09 04:14 | 41.21979 | -96.43500 | 5325 ft | 169 kts | 95° |
| 2026-05-09 04:14 | 41.21951 | -96.41939 | 5324 ft | 169 kts | 95° |
| 2026-05-09 04:14 | 41.21924 | -96.40399 | 5325 ft | 169 kts | 95° |
| 2026-05-09 04:15 | 41.21895 | -96.38841 | 5324 ft | 169 kts | 96° |
| 2026-05-09 04:15 | 41.21867 | -96.37283 | 5326 ft | 169 kts | 95° |
| 2026-05-09 04:15 | 41.21838 | -96.35719 | 5324 ft | 169 kts | 95° |
| 2026-05-09 04:15 | 41.21810 | -96.34160 | 5325 ft | 169 kts | 96° |
| 2026-05-09 04:16 | 41.21781 | -96.32600 | 5326 ft | 169 kts | 96° |
| 2026-05-09 04:16 | 41.21751 | -96.31042 | 5324 ft | 169 kts | 96° |
| 2026-05-09 04:16 | 41.21722 | -96.29482 | 5326 ft | 169 kts | 96° |
| 2026-05-09 04:16 | 41.21693 | -96.27926 | 5324 ft | 169 kts | 96° |
| 2026-05-09 04:17 | 41.21663 | -96.26383 | 5323 ft | 169 kts | 96° |
| 2026-05-09 04:17 | 41.21633 | -96.24823 | 5325 ft | 169 kts | 96° |
| 2026-05-09 04:17 | 41.21603 | -96.23262 | 5323 ft | 169 kts | 96° |
| 2026-05-09 04:17 | 41.21572 | -96.21703 | 5324 ft | 169 kts | 96° |
| 2026-05-09 04:18 | 41.21542 | -96.20147 | 5326 ft | 169 kts | 96° |
| 2026-05-09 04:18 | 41.21511 | -96.18586 | 5325 ft | 169 kts | 96° |
| 2026-05-09 04:18 | 41.21480 | -96.17028 | 5325 ft | 169 kts | 96° |
| 2026-05-09 04:18 | 41.21448 | -96.15473 | 5324 ft | 169 kts | 96° |
| 2026-05-09 04:19 | 41.21416 | -96.13915 | 5326 ft | 169 kts | 96° |
| 2026-05-09 04:19 | 41.21385 | -96.12361 | 5325 ft | 169 kts | 96° |
| 2026-05-09 04:19 | 41.21353 | -96.10821 | 5325 ft | 169 kts | 96° |
| 2026-05-09 04:19 | 41.21322 | -96.09259 | 5326 ft | 169 kts | 96° |
| 2026-05-09 04:20 | 41.21282 | -96.07702 | 5326 ft | 168 kts | 99° |
| 2026-05-09 04:20 | 41.21086 | -96.06182 | 5333 ft | 167 kts | 106° |
| 2026-05-09 04:20 | 41.20847 | -96.04671 | 5333 ft | 167 kts | 106° |
| 2026-05-09 04:20 | 41.20606 | -96.03158 | 5333 ft | 167 kts | 106° |
| 2026-05-09 04:21 | 41.20365 | -96.01644 | 5329 ft | 168 kts | 106° |
| 2026-05-09 04:21 | 41.20124 | -96.00133 | 5328 ft | 167 kts | 106° |
| 2026-05-09 04:21 | 41.19644 | -95.97107 | 5316 ft | 165 kts | 106° |
| 2026-05-09 04:22 | 41.19411 | -95.95637 | 5020 ft | 166 kts | 106° |
| 2026-05-09 04:22 | 41.19179 | -95.94137 | 4741 ft | 166 kts | 106° |
| 2026-05-09 04:22 | 41.18945 | -95.92639 | 4475 ft | 165 kts | 106° |
| 2026-05-09 04:22 | 41.18718 | -95.91170 | 4336 ft | 157 kts | 105° |
| 2026-05-09 04:23 | 41.18447 | -95.89842 | 4335 ft | 142 kts | 127° |
| 2026-05-09 04:23 | 41.17862 | -95.88835 | 4321 ft | 135 kts | 133° |
| 2026-05-09 04:23 | 41.17289 | -95.87870 | 4323 ft | 131 kts | 132° |
| 2026-05-09 04:23 | 41.16730 | -95.86930 | 4322 ft | 128 kts | 133° |
| 2026-05-09 04:24 | 41.16184 | -95.86006 | 4322 ft | 127 kts | 133° |
| 2026-05-09 04:24 | 41.15643 | -95.85091 | 4327 ft | 125 kts | 133° |
| 2026-05-09 04:24 | 41.15101 | -95.84175 | 4326 ft | 129 kts | 133° |
| 2026-05-09 04:24 | 41.14751 | -95.83075 | 4326 ft | 138 kts | 90° |
| 2026-05-09 04:25 | 41.15222 | -95.81988 | 4270 ft | 144 kts | 35° |
| 2026-05-09 04:25 | 41.16183 | -95.81601 | 4134 ft | 146 kts | 13° |
| 2026-05-09 04:25 | 41.17178 | -95.81350 | 4004 ft | 146 kts | 13° |
| 2026-05-09 04:25 | 41.18173 | -95.81102 | 3882 ft | 144 kts | 12° |
| 2026-05-09 04:26 | 41.19163 | -95.81189 | 3576 ft | 145 kts | 346° |
| 2026-05-09 04:26 | 41.20135 | -95.81517 | 3339 ft | 141 kts | 347° |
| 2026-05-09 04:26 | 41.21026 | -95.81820 | 3316 ft | 124 kts | 346° |
| 2026-05-09 04:26 | 41.21846 | -95.82102 | 3333 ft | 128 kts | 346° |
| 2026-05-09 04:27 | 41.22783 | -95.82418 | 3350 ft | 148 kts | 347° |
| 2026-05-09 04:27 | 41.23785 | -95.82880 | 3359 ft | 157 kts | 338° |
| 2026-05-09 04:27 | 41.24765 | -95.83418 | 2986 ft | 156 kts | 337° |
| 2026-05-09 04:27 | 41.25742 | -95.84068 | 2548 ft | 156 kts | 331° |
| 2026-05-09 04:28 | 41.26659 | -95.84834 | 2120 ft | 155 kts | 322° |
| 2026-05-09 04:28 | 41.27469 | -95.85746 | 1782 ft | 150 kts | 317° |
| 2026-05-09 04:28 | 41.28200 | -95.86713 | 1414 ft | 147 kts | 313° |
| 2026-05-09 04:28 | 41.28910 | -95.87601 | 1172 ft | 135 kts | 320° |
| 2026-05-09 04:29 | 41.29608 | -95.88352 | 1010 ft | 120 kts | 322° |
| 2026-05-09 04:29 | 41.30222 | -95.88981 | 982 ft | 103 kts | 324° |
| 2026-05-09 04:29 | 41.30636 | -95.89368 | 987 ft | 42 kts | 323° |
| 2026-05-09 04:29 | 41.30804 | -95.89490 | 993 ft | 16 kts | 346° |
| 2026-05-09 04:30 | 41.30922 | -95.89462 | 983 ft | 18 kts | 31° |
| 2026-05-09 04:30 | 41.30924 | -95.89419 | 986 ft | 7 kts | 169° |
| 2026-05-09 04:30 | 41.30885 | -95.89337 | 985 ft | 13 kts | 86° |
| 2026-05-09 04:30 | 41.30906 | -95.89198 | 986 ft | 14 kts | 62° |